createdAt,value
2023-01-17T00:01:19.082Z,19.80
2023-01-17T00:04:04.482Z,19.80
2023-01-17T00:06:49.753Z,19.80
2023-01-17T00:09:35.111Z,19.80
2023-01-17T00:12:02.221Z,19.80
2023-01-17T00:14:28.937Z,19.80
2023-01-17T00:16:55.669Z,19.80
2023-01-17T00:19:40.861Z,19.70
2023-01-17T00:22:45.792Z,19.70
2023-01-17T00:25:36.699Z,19.70
2023-01-17T00:28:04.415Z,19.60
2023-01-17T00:30:31.679Z,19.60
2023-01-17T00:32:58.510Z,19.50
2023-01-17T00:35:27.025Z,19.50
2023-01-17T00:38:14.548Z,19.50
2023-01-17T00:40:43.411Z,19.50
2023-01-17T00:43:29.906Z,19.50
2023-01-17T00:46:15.608Z,19.40
2023-01-17T00:49:01.438Z,19.40
2023-01-17T00:51:48.249Z,19.40
2023-01-17T00:54:34.078Z,19.40
2023-01-17T00:57:20.395Z,19.40
2023-01-17T01:00:06.652Z,19.30
2023-01-17T01:02:52.869Z,19.30
2023-01-17T01:05:38.597Z,19.30
2023-01-17T01:08:44.615Z,19.30
2023-01-17T01:11:33.530Z,19.30
2023-01-17T01:14:20.139Z,19.20
2023-01-17T01:17:05.803Z,19.20
2023-01-17T01:19:52.476Z,19.20
2023-01-17T01:22:37.757Z,19.20
2023-01-17T01:25:23.853Z,19.10
2023-01-17T01:28:09.043Z,19.10
2023-01-17T01:30:54.373Z,19.10
2023-01-17T01:33:21.135Z,19.10
2023-01-17T01:35:53.731Z,19.10
2023-01-17T01:38:22.931Z,19.10
2023-01-17T01:40:52.116Z,19.00
2023-01-17T01:43:41.405Z,19.10
2023-01-17T01:46:08.166Z,19.00
2023-01-17T01:48:51.302Z,19.00
2023-01-17T01:51:22.840Z,19.00
2023-01-17T01:53:51.479Z,18.90
2023-01-17T01:56:20.063Z,18.90
2023-01-17T01:58:49.746Z,18.90
2023-01-17T02:01:17.533Z,18.90
2023-01-17T02:03:45.340Z,18.90
2023-01-17T02:06:34.308Z,18.90
2023-01-17T02:09:06.662Z,18.90
2023-01-17T02:11:36.478Z,18.90
2023-01-17T02:14:03.709Z,18.90
2023-01-17T02:16:38.619Z,18.90
2023-01-17T02:19:55.906Z,18.90
2023-01-17T02:22:59.675Z,18.90
2023-01-17T02:25:45.173Z,18.90
2023-01-17T02:28:29.916Z,18.80
2023-01-17T02:31:06.315Z,18.80
2023-01-17T02:33:49.980Z,18.80
2023-01-17T02:36:33.163Z,18.80
2023-01-17T02:39:08.063Z,18.80
2023-01-17T02:41:41.580Z,18.80
2023-01-17T02:44:09.888Z,18.80
2023-01-17T02:46:55.185Z,18.80
2023-01-17T02:49:26.937Z,18.70
2023-01-17T02:52:07.070Z,18.70
2023-01-17T02:55:17.918Z,18.70
2023-01-17T02:58:16.738Z,18.70
2023-01-17T03:01:10.031Z,18.70
2023-01-17T03:03:56.804Z,18.70
2023-01-17T03:06:47.229Z,18.60
2023-01-17T03:09:14.846Z,18.60
2023-01-17T03:11:42.577Z,18.60
2023-01-17T03:14:09.385Z,18.60
2023-01-17T03:16:36.359Z,18.60
2023-01-17T03:19:03.168Z,18.60
2023-01-17T03:21:29.866Z,18.60
2023-01-17T03:23:56.631Z,18.60
2023-01-17T03:26:23.339Z,18.60
2023-01-17T03:28:50.675Z,18.60
2023-01-17T03:31:19.920Z,18.60
2023-01-17T03:33:46.607Z,18.60
2023-01-17T03:36:13.303Z,18.60
2023-01-17T03:38:40.018Z,18.50
2023-01-17T03:41:07.338Z,18.50
2023-01-17T03:43:34.381Z,18.50
2023-01-17T03:46:18.337Z,18.50
2023-01-17T03:48:45.168Z,18.50
2023-01-17T03:51:11.866Z,18.50
2023-01-17T03:53:38.602Z,18.50
2023-01-17T03:56:05.626Z,18.50
2023-01-17T03:58:32.374Z,18.50
2023-01-17T04:00:59.136Z,18.50
2023-01-17T04:03:26.104Z,18.40
2023-01-17T04:05:52.789Z,18.40
2023-01-17T04:08:19.514Z,18.40
2023-01-17T04:10:46.216Z,18.40
2023-01-17T04:13:13.706Z,18.40
2023-01-17T04:15:40.615Z,18.40
2023-01-17T04:18:07.533Z,18.40
2023-01-17T04:20:36.558Z,18.40
2023-01-17T04:23:04.007Z,18.40
2023-01-17T04:25:31.060Z,18.40
2023-01-17T04:27:59.498Z,18.30
2023-01-17T04:30:27.498Z,18.40
2023-01-17T04:32:54.971Z,18.30
2023-01-17T04:35:21.853Z,18.30
2023-01-17T04:37:48.774Z,18.30
2023-01-17T04:40:15.579Z,18.30
2023-01-17T04:42:44.726Z,18.30
2023-01-17T04:45:11.759Z,18.30
2023-01-17T04:47:38.527Z,18.30
2023-01-17T04:50:05.726Z,18.30
2023-01-17T04:52:32.497Z,18.20
2023-01-17T04:54:59.188Z,18.20
2023-01-17T04:57:25.956Z,18.20
2023-01-17T04:59:53.599Z,18.20
2023-01-17T05:02:20.611Z,18.20
2023-01-17T05:04:47.420Z,18.20
2023-01-17T05:07:14.223Z,18.20
2023-01-17T05:09:41.055Z,18.20
2023-01-17T05:12:07.824Z,18.20
2023-01-17T05:14:34.515Z,18.20
2023-01-17T05:17:03.104Z,18.20
2023-01-17T05:19:29.839Z,18.10
2023-01-17T05:22:03.656Z,18.10
2023-01-17T05:24:31.329Z,18.10
2023-01-17T05:27:03.831Z,18.10
2023-01-17T05:29:30.969Z,18.10
2023-01-17T05:31:57.669Z,18.10
2023-01-17T05:34:24.422Z,18.10
2023-01-17T05:36:51.193Z,18.10
2023-01-17T05:39:18.072Z,18.10
2023-01-17T05:41:44.918Z,18.10
2023-01-17T05:44:11.771Z,18.00
2023-01-17T05:46:38.619Z,18.00
2023-01-17T05:49:05.630Z,18.00
2023-01-17T05:51:32.594Z,18.00
2023-01-17T05:53:59.307Z,18.00
2023-01-17T05:56:26.053Z,18.00
2023-01-17T05:58:52.813Z,18.00
2023-01-17T06:01:19.709Z,18.00
2023-01-17T06:03:46.516Z,18.00
2023-01-17T06:06:13.380Z,18.00
2023-01-17T06:08:40.120Z,18.00
2023-01-17T06:11:06.866Z,17.90
2023-01-17T06:13:33.677Z,18.00
2023-01-17T06:16:04.200Z,17.90
2023-01-17T06:18:31.600Z,17.90
2023-01-17T06:20:58.441Z,17.90
2023-01-17T06:23:25.732Z,17.90
2023-01-17T06:25:52.562Z,17.90
2023-01-17T06:28:21.042Z,17.90
2023-01-17T06:30:47.939Z,17.90
2023-01-17T06:33:14.762Z,17.80
2023-01-17T06:35:48.758Z,17.80
2023-01-17T06:38:15.621Z,17.80
2023-01-17T06:40:42.323Z,17.80
2023-01-17T06:43:09.053Z,17.80
2023-01-17T06:45:36.095Z,17.80
2023-01-17T06:48:04.128Z,17.80
2023-01-17T06:50:31.782Z,17.80
2023-01-17T06:53:01.034Z,17.80
2023-01-17T06:55:33.563Z,17.80
2023-01-17T06:58:02.519Z,17.80
2023-01-17T07:00:31.244Z,17.80
2023-01-17T07:02:58.154Z,17.70
2023-01-17T07:05:25.176Z,17.70
2023-01-17T07:07:53.089Z,17.70
2023-01-17T07:10:19.833Z,17.70
2023-01-17T07:12:46.825Z,17.70
2023-01-17T07:15:13.544Z,17.60
2023-01-17T07:17:40.378Z,17.50
2023-01-17T07:20:07.893Z,17.40
2023-01-17T07:22:35.354Z,17.50
2023-01-17T07:25:02.046Z,17.50
2023-01-17T07:27:30.481Z,17.50
2023-01-17T07:29:57.841Z,17.60
2023-01-17T07:32:26.552Z,17.70
2023-01-17T07:34:54.108Z,17.80
2023-01-17T07:37:21.032Z,17.80
2023-01-17T07:39:47.846Z,17.90
2023-01-17T07:42:14.729Z,18.00
2023-01-17T07:44:43.987Z,18.10
2023-01-17T07:47:11.536Z,18.20
2023-01-17T07:49:38.371Z,18.20
2023-01-17T07:52:08.393Z,18.30
2023-01-17T07:54:35.490Z,18.40
2023-01-17T07:57:02.489Z,18.40
2023-01-17T07:59:29.366Z,18.50
2023-01-17T08:01:56.200Z,18.50
2023-01-17T08:04:26.204Z,18.50
2023-01-17T08:06:54.857Z,18.50
2023-01-17T08:09:21.875Z,18.50
2023-01-17T08:11:48.625Z,18.60
2023-01-17T08:14:15.331Z,18.60
2023-01-17T08:16:42.152Z,18.60
2023-01-17T08:19:09.090Z,18.50
2023-01-17T08:21:35.856Z,18.50
2023-01-17T08:24:02.539Z,18.60
2023-01-17T08:26:29.310Z,18.50
2023-01-17T08:28:59.096Z,18.50
2023-01-17T08:31:26.724Z,18.50
2023-01-17T08:33:53.471Z,18.50
2023-01-17T08:36:20.352Z,18.60
2023-01-17T08:38:47.489Z,18.60
2023-01-17T08:41:14.319Z,18.60
2023-01-17T08:43:41.023Z,18.60
2023-01-17T08:46:07.856Z,18.60
2023-01-17T08:48:34.585Z,18.60
2023-01-17T08:51:02.694Z,18.60
2023-01-17T08:53:29.554Z,18.60
2023-01-17T08:56:00.664Z,18.60
2023-01-17T08:58:31.985Z,18.60
2023-01-17T09:01:03.095Z,18.60
2023-01-17T09:03:32.070Z,18.60
2023-01-17T09:06:06.068Z,18.60
2023-01-17T09:08:34.602Z,18.60
2023-01-17T09:11:08.503Z,18.60
2023-01-17T09:13:35.521Z,18.60
2023-01-17T09:16:02.971Z,18.60
2023-01-17T09:18:31.601Z,18.60
2023-01-17T09:20:59.308Z,18.60
2023-01-17T09:23:29.152Z,18.70
2023-01-17T09:25:59.692Z,18.60
2023-01-17T09:28:27.017Z,18.60
2023-01-17T09:30:54.260Z,18.60
2023-01-17T09:33:21.057Z,18.60
2023-01-17T09:35:47.756Z,18.60
2023-01-17T09:38:14.531Z,18.70
2023-01-17T09:40:46.222Z,18.70
2023-01-17T09:43:26.846Z,18.60
2023-01-17T09:45:53.722Z,18.70
2023-01-17T09:48:31.677Z,18.70
2023-01-17T09:51:02.972Z,18.70
2023-01-17T09:53:31.758Z,18.60
2023-01-17T09:56:04.815Z,18.60
2023-01-17T09:59:01.468Z,18.60
2023-01-17T10:01:57.787Z,18.50
2023-01-17T10:04:44.776Z,18.50
2023-01-17T10:07:32.636Z,18.50
2023-01-17T10:10:17.717Z,18.50
2023-01-17T10:12:47.479Z,18.50
2023-01-17T10:15:38.967Z,18.40
2023-01-17T10:18:30.061Z,18.50
2023-01-17T10:21:18.558Z,18.50
2023-01-17T10:23:54.667Z,18.60
2023-01-17T10:26:25.478Z,18.60
2023-01-17T10:28:54.513Z,18.70
2023-01-17T10:31:25.011Z,18.80
2023-01-17T10:33:54.032Z,18.90
2023-01-17T10:36:26.659Z,19.00
2023-01-17T10:38:56.178Z,19.10
2023-01-17T10:41:29.556Z,19.20
2023-01-17T10:43:59.164Z,19.30
2023-01-17T10:46:30.459Z,19.30
2023-01-17T10:48:57.510Z,19.40
2023-01-17T10:51:50.693Z,19.50
2023-01-17T10:54:27.058Z,19.60
2023-01-17T10:56:55.008Z,19.60
2023-01-17T10:59:30.540Z,19.70
2023-01-17T11:01:58.432Z,19.70
2023-01-17T11:04:36.551Z,19.80
2023-01-17T11:07:29.739Z,19.90
2023-01-17T11:09:58.122Z,20.00
2023-01-17T11:12:40.591Z,20.10
2023-01-17T11:15:10.394Z,20.20
2023-01-17T11:17:38.794Z,20.20
2023-01-17T11:20:22.713Z,20.30
2023-01-17T11:23:04.351Z,20.30
2023-01-17T11:25:34.001Z,20.40
2023-01-17T11:28:18.981Z,20.50
2023-01-17T11:30:55.605Z,20.50
2023-01-17T11:33:48.169Z,20.60
2023-01-17T11:36:30.077Z,20.70
2023-01-17T11:39:07.117Z,20.70
2023-01-17T11:41:35.124Z,20.70
2023-01-17T11:44:04.324Z,20.70
2023-01-17T11:46:32.132Z,20.80
2023-01-17T11:49:00.705Z,20.80
2023-01-17T11:51:33.266Z,20.90
2023-01-17T11:54:17.094Z,20.80
2023-01-17T11:56:46.203Z,20.80
2023-01-17T11:59:29.930Z,20.80
2023-01-17T12:02:03.393Z,20.80
2023-01-17T12:04:47.282Z,20.80
2023-01-17T12:07:44.134Z,20.90
2023-01-17T12:10:29.495Z,20.90
2023-01-17T12:13:27.098Z,21.00
2023-01-17T12:16:22.436Z,21.00
2023-01-17T12:19:14.434Z,21.00
2023-01-17T12:22:14.081Z,21.10
2023-01-17T12:24:58.395Z,21.20
2023-01-17T12:27:34.909Z,21.20
2023-01-17T12:30:20.348Z,21.20
2023-01-17T12:33:19.173Z,21.20
2023-01-17T12:35:59.008Z,21.30
2023-01-17T12:38:32.983Z,21.30
2023-01-17T12:41:07.408Z,21.30
2023-01-17T12:43:37.342Z,21.30
2023-01-17T12:46:21.361Z,21.30
2023-01-17T12:48:52.726Z,21.40
2023-01-17T12:51:27.504Z,21.30
2023-01-17T12:54:16.630Z,21.40
2023-01-17T12:56:51.163Z,21.40
2023-01-17T12:59:20.903Z,21.40
2023-01-17T13:01:57.853Z,21.40
2023-01-17T13:04:29.899Z,21.30
2023-01-17T13:07:03.026Z,21.30
2023-01-17T13:09:42.094Z,21.40
2023-01-17T13:12:15.531Z,21.40
2023-01-17T13:14:42.351Z,21.30
2023-01-17T13:17:13.168Z,21.30
2023-01-17T13:19:46.123Z,21.30
2023-01-17T13:22:21.827Z,21.30
2023-01-17T13:25:13.094Z,21.30
2023-01-17T13:28:02.037Z,21.40
2023-01-17T13:30:49.432Z,21.30
2023-01-17T13:33:28.312Z,21.30
2023-01-17T13:36:05.070Z,21.40
2023-01-17T13:38:44.422Z,21.40
2023-01-17T13:41:25.549Z,21.40
2023-01-17T13:44:11.645Z,21.30
2023-01-17T13:47:04.666Z,21.30
2023-01-17T13:49:45.711Z,21.30
2023-01-17T13:52:23.121Z,21.40
2023-01-17T13:54:50.696Z,21.40
2023-01-17T13:57:23.251Z,21.40
2023-01-17T13:59:50.498Z,21.40
2023-01-17T14:02:32.570Z,21.30
2023-01-17T14:05:09.608Z,21.30
2023-01-17T14:07:41.886Z,21.30
2023-01-17T14:10:28.731Z,21.30
2023-01-17T14:12:56.232Z,21.20
2023-01-17T14:15:25.556Z,21.20
2023-01-17T14:18:04.010Z,21.20
2023-01-17T14:20:40.690Z,21.20
2023-01-17T14:23:24.148Z,21.10
2023-01-17T14:25:51.524Z,21.10
2023-01-17T14:28:26.335Z,21.10
2023-01-17T14:30:55.955Z,21.10
2023-01-17T14:33:29.058Z,21.10
2023-01-17T14:36:04.869Z,21.10
2023-01-17T14:38:33.041Z,21.10
2023-01-17T14:41:02.650Z,21.10
2023-01-17T14:43:32.946Z,21.10
2023-01-17T14:46:24.507Z,21.10
2023-01-17T14:48:58.711Z,21.10
2023-01-17T14:51:25.656Z,21.10
2023-01-17T14:53:56.989Z,21.10
2023-01-17T14:56:28.828Z,21.10
2023-01-17T14:59:16.954Z,21.10
2023-01-17T15:01:55.250Z,21.10
2023-01-17T15:04:30.454Z,21.10
2023-01-17T15:06:58.716Z,21.10
2023-01-17T15:09:27.690Z,21.10
2023-01-17T15:11:55.087Z,21.10
2023-01-17T15:14:24.912Z,21.10
2023-01-17T15:16:52.013Z,21.10
2023-01-17T15:19:19.637Z,21.10
2023-01-17T15:21:50.493Z,21.00
2023-01-17T15:24:23.253Z,21.10
2023-01-17T15:26:50.156Z,21.10
2023-01-17T15:29:32.248Z,21.00
2023-01-17T15:32:01.962Z,21.00
2023-01-17T15:34:36.315Z,21.00
2023-01-17T15:37:19.737Z,21.00
2023-01-17T15:39:46.719Z,20.90
2023-01-17T15:42:23.081Z,20.90
2023-01-17T15:44:54.738Z,20.90
2023-01-17T15:47:39.601Z,20.90
2023-01-17T15:50:26.241Z,20.90
2023-01-17T15:52:55.112Z,20.80
2023-01-17T15:55:28.681Z,20.80
2023-01-17T15:57:55.663Z,20.80
2023-01-17T16:00:26.356Z,20.80
2023-01-17T16:02:58.683Z,20.70
2023-01-17T16:05:30.851Z,20.70
2023-01-17T16:08:24.410Z,20.70
2023-01-17T16:10:55.259Z,20.70
2023-01-17T16:13:22.090Z,20.70
2023-01-17T16:15:48.942Z,20.70
2023-01-17T16:18:24.263Z,20.70
2023-01-17T16:20:58.361Z,20.70
2023-01-17T16:23:25.285Z,20.70
2023-01-17T16:25:53.901Z,20.80
2023-01-17T16:28:20.993Z,20.80
2023-01-17T16:30:48.836Z,20.80
2023-01-17T16:33:16.219Z,20.80
2023-01-17T16:35:44.097Z,20.80
2023-01-17T16:38:12.856Z,20.80
2023-01-17T16:40:44.440Z,20.80
2023-01-17T16:43:13.160Z,20.80
2023-01-17T16:45:41.464Z,20.80
2023-01-17T16:48:09.355Z,20.80
2023-01-17T16:50:40.925Z,20.80
2023-01-17T16:53:07.967Z,20.80
2023-01-17T16:55:34.685Z,20.90
2023-01-17T16:58:01.536Z,20.80
2023-01-17T17:00:28.231Z,20.80
2023-01-17T17:02:55.004Z,20.90
2023-01-17T17:05:21.726Z,20.90
2023-01-17T17:07:51.660Z,20.90
2023-01-17T17:10:20.607Z,20.90
2023-01-17T17:12:47.362Z,20.90
2023-01-17T17:15:14.497Z,20.90
2023-01-17T17:17:43.099Z,20.90
2023-01-17T17:20:13.412Z,20.90
2023-01-17T17:22:42.986Z,20.80
2023-01-17T17:25:11.948Z,20.80
2023-01-17T17:27:38.957Z,20.90
2023-01-17T17:30:06.316Z,20.90
2023-01-17T17:32:33.075Z,20.90
2023-01-17T17:34:59.936Z,20.90
2023-01-17T17:37:29.012Z,20.90
2023-01-17T17:39:58.483Z,20.90
2023-01-17T17:42:25.558Z,20.90
2023-01-17T17:44:52.355Z,20.90
2023-01-17T17:47:19.406Z,20.90
2023-01-17T17:49:46.187Z,20.90
2023-01-17T17:52:13.030Z,20.90
2023-01-17T17:54:39.770Z,20.80
2023-01-17T17:57:07.459Z,20.80
2023-01-17T17:59:35.158Z,20.80
2023-01-17T18:02:01.959Z,20.80
2023-01-17T18:04:28.865Z,20.80
2023-01-17T18:06:57.495Z,20.80
2023-01-17T18:09:24.305Z,20.70
2023-01-17T18:11:51.041Z,20.70
2023-01-17T18:14:20.866Z,20.70
2023-01-17T18:16:47.743Z,20.70
2023-01-17T18:19:23.827Z,20.70
2023-01-17T18:21:51.391Z,20.60
2023-01-17T18:24:21.726Z,20.70
2023-01-17T18:26:52.269Z,20.70
2023-01-17T18:29:20.818Z,20.70
2023-01-17T18:31:50.092Z,20.60
2023-01-17T18:34:23.839Z,20.60
2023-01-17T18:36:51.427Z,20.60
2023-01-17T18:39:24.397Z,20.60
2023-01-17T18:41:51.482Z,20.60
2023-01-17T18:44:21.830Z,20.50
2023-01-17T18:46:50.215Z,20.60
2023-01-17T18:49:19.069Z,20.50
2023-01-17T18:51:50.218Z,20.50
2023-01-17T18:54:17.728Z,20.50
2023-01-17T18:56:44.606Z,20.50
2023-01-17T18:59:15.993Z,20.50
2023-01-17T19:01:43.674Z,20.50
2023-01-17T19:04:11.652Z,20.50
2023-01-17T19:06:40.506Z,20.40
2023-01-17T19:09:08.343Z,20.40
2023-01-17T19:11:36.928Z,20.40
2023-01-17T19:14:04.415Z,20.40
2023-01-17T19:16:35.004Z,20.40
2023-01-17T19:19:04.841Z,20.40
2023-01-17T19:21:31.820Z,20.30
2023-01-17T19:23:58.982Z,20.30
2023-01-17T19:26:27.316Z,20.30
2023-01-17T19:28:56.079Z,20.20
2023-01-17T19:31:25.002Z,20.20
2023-01-17T19:33:55.966Z,20.20
2023-01-17T19:36:25.301Z,20.20
2023-01-17T19:39:03.546Z,20.10
2023-01-17T19:41:31.337Z,20.10
2023-01-17T19:44:00.911Z,20.00
2023-01-17T19:46:28.610Z,20.00
2023-01-17T19:48:56.872Z,20.00
2023-01-17T19:51:24.398Z,20.00
2023-01-17T19:53:51.177Z,20.00
2023-01-17T19:56:22.380Z,20.00
2023-01-17T19:58:49.201Z,20.00
2023-01-17T20:01:18.177Z,20.00
2023-01-17T20:03:46.761Z,19.90
2023-01-17T20:06:16.412Z,19.90
2023-01-17T20:08:43.641Z,19.90
2023-01-17T20:11:14.637Z,19.90
2023-01-17T20:13:42.106Z,19.90
2023-01-17T20:16:11.172Z,19.90
2023-01-17T20:18:38.471Z,19.80
2023-01-17T20:21:10.199Z,19.90
2023-01-17T20:23:38.835Z,19.80
2023-01-17T20:26:06.152Z,19.80
2023-01-17T20:28:34.103Z,19.80
2023-01-17T20:31:06.201Z,19.80
2023-01-17T20:33:33.321Z,19.80
2023-01-17T20:36:09.960Z,19.80
2023-01-17T20:38:44.950Z,19.80
2023-01-17T20:41:22.688Z,19.80
2023-01-17T20:43:51.711Z,19.80
2023-01-17T20:46:19.625Z,19.80
2023-01-17T20:48:51.177Z,19.80
2023-01-17T20:51:18.664Z,19.80
2023-01-17T20:53:46.540Z,19.80
2023-01-17T20:56:14.957Z,19.80
2023-01-17T20:58:42.171Z,19.80
2023-01-17T21:01:10.839Z,19.80
2023-01-17T21:03:38.545Z,19.80
2023-01-17T21:06:07.476Z,19.70
2023-01-17T21:08:36.323Z,19.70
2023-01-17T21:11:04.509Z,19.70
2023-01-17T21:13:31.707Z,19.70
2023-01-17T21:15:58.509Z,19.70
2023-01-17T21:18:26.453Z,19.70
2023-01-17T21:20:53.282Z,19.70
2023-01-17T21:23:20.153Z,19.70
2023-01-17T21:25:56.593Z,19.70
2023-01-17T21:28:25.678Z,19.70
2023-01-17T21:30:53.267Z,19.70
2023-01-17T21:33:21.322Z,19.60
2023-01-17T21:35:48.218Z,19.70
2023-01-17T21:38:15.159Z,19.60
2023-01-17T21:40:43.296Z,19.60
2023-01-17T21:43:11.425Z,19.60
2023-01-17T21:45:39.557Z,19.60
2023-01-17T21:48:07.259Z,19.60
2023-01-17T21:50:34.278Z,19.60
2023-01-17T21:53:01.246Z,19.60
2023-01-17T21:55:46.432Z,19.60
2023-01-17T21:58:34.059Z,19.60
2023-01-17T22:01:21.812Z,19.60
2023-01-17T22:03:54.074Z,19.50
2023-01-17T22:06:24.677Z,19.60
2023-01-17T22:08:51.638Z,19.50
2023-01-17T22:11:23.858Z,19.50
2023-01-17T22:13:51.147Z,19.50
2023-01-17T22:16:20.519Z,19.50
2023-01-17T22:18:49.420Z,19.40
2023-01-17T22:21:22.057Z,19.50
2023-01-17T22:23:52.222Z,19.40
2023-01-17T22:26:20.465Z,19.40
2023-01-17T22:28:47.268Z,19.40
2023-01-17T22:31:21.012Z,19.40
2023-01-17T22:33:52.573Z,19.40
2023-01-17T22:36:20.119Z,19.40
2023-01-17T22:38:47.247Z,19.40
2023-01-17T22:41:20.153Z,19.40
2023-01-17T22:43:49.801Z,19.40
2023-01-17T22:46:19.684Z,19.40
2023-01-17T22:48:46.871Z,19.30
2023-01-17T22:51:15.320Z,19.40
2023-01-17T22:53:46.177Z,19.40
2023-01-17T22:56:14.984Z,19.30
2023-01-17T22:58:44.591Z,19.30
2023-01-17T23:01:33.865Z,19.30
2023-01-17T23:04:02.833Z,19.20
2023-01-17T23:06:30.693Z,19.20
2023-01-17T23:09:00.039Z,19.20
2023-01-17T23:11:43.410Z,19.20
2023-01-17T23:14:20.684Z,19.20
2023-01-17T23:17:11.242Z,19.10
2023-01-17T23:19:43.742Z,19.10
2023-01-17T23:22:17.282Z,19.10
2023-01-17T23:24:55.163Z,19.10
2023-01-17T23:27:53.113Z,19.10
2023-01-17T23:30:25.112Z,19.10
2023-01-17T23:32:53.732Z,19.00
2023-01-17T23:35:22.545Z,19.00
2023-01-17T23:38:08.949Z,19.00
2023-01-17T23:40:36.828Z,19.00
2023-01-17T23:43:22.436Z,19.00
2023-01-17T23:45:53.615Z,19.00
2023-01-17T23:48:21.875Z,18.90
2023-01-17T23:50:48.915Z,18.90
2023-01-17T23:53:22.421Z,18.90
2023-01-17T23:55:54.952Z,18.90
2023-01-17T23:58:24.264Z,18.90
